sensor_id;sensor_type;location;lat;lon;timestamp;pressure;altitude;pressure_sealevel;temperature;humidity
80504;BME280;69825;51.190;6.808;2023-05-07T00:01:14;101309.75;;;24.87;46.81
80504;BME280;69825;51.190;6.808;2023-05-07T00:03:40;101311.44;;;24.83;46.86
80504;BME280;69825;51.190;6.808;2023-05-07T00:06:05;101300.03;;;24.81;46.46
80504;BME280;69825;51.190;6.808;2023-05-07T00:08:30;101302.44;;;24.83;46.42
80504;BME280;69825;51.190;6.808;2023-05-07T00:10:56;101297.50;;;24.85;47.08
80504;BME280;69825;51.190;6.808;2023-05-07T00:13:21;101301.34;;;24.84;46.99
80504;BME280;69825;51.190;6.808;2023-05-07T00:15:46;101304.06;;;24.84;46.56
80504;BME280;69825;51.190;6.808;2023-05-07T00:18:12;101290.50;;;24.79;46.44
80504;BME280;69825;51.190;6.808;2023-05-07T00:20:37;101287.28;;;24.77;46.77
80504;BME280;69825;51.190;6.808;2023-05-07T00:23:02;101285.84;;;24.79;46.54
80504;BME280;69825;51.190;6.808;2023-05-07T00:25:28;101289.09;;;24.81;46.38
80504;BME280;69825;51.190;6.808;2023-05-07T00:27:53;101294.88;;;24.80;46.75
80504;BME280;69825;51.190;6.808;2023-05-07T00:30:18;101292.94;;;24.80;46.62
80504;BME280;69825;51.190;6.808;2023-05-07T00:32:44;101300.34;;;24.80;46.93
80504;BME280;69825;51.190;6.808;2023-05-07T00:35:10;101300.63;;;24.78;46.71
80504;BME280;69825;51.190;6.808;2023-05-07T00:37:36;101297.88;;;24.78;47.02
80504;BME280;69825;51.190;6.808;2023-05-07T00:40:01;101290.00;;;24.77;46.60
80504;BME280;69825;51.190;6.808;2023-05-07T00:42:29;101284.31;;;24.73;47.28
80504;BME280;69825;51.190;6.808;2023-05-07T00:44:57;101292.75;;;24.77;46.47
80504;BME280;69825;51.190;6.808;2023-05-07T00:47:23;101290.81;;;24.77;47.01
80504;BME280;69825;51.190;6.808;2023-05-07T00:49:48;101280.97;;;24.76;47.09
80504;BME280;69825;51.190;6.808;2023-05-07T00:52:16;101284.84;;;24.75;46.50
80504;BME280;69825;51.190;6.808;2023-05-07T00:54:42;101284.03;;;24.75;46.90
80504;BME280;69825;51.190;6.808;2023-05-07T00:57:09;101283.19;;;24.74;46.58
80504;BME280;69825;51.190;6.808;2023-05-07T00:59:34;101283.19;;;24.74;47.09
80504;BME280;69825;51.190;6.808;2023-05-07T01:02:00;101285.13;;;24.74;47.25
80504;BME280;69825;51.190;6.808;2023-05-07T01:04:26;101291.50;;;24.69;46.94
80504;BME280;69825;51.190;6.808;2023-05-07T01:06:52;101296.88;;;24.74;47.14
80504;BME280;69825;51.190;6.808;2023-05-07T01:09:18;101302.63;;;24.73;47.33
80504;BME280;69825;51.190;6.808;2023-05-07T01:11:45;101296.38;;;24.72;46.80
80504;BME280;69825;51.190;6.808;2023-05-07T01:14:10;101273.81;;;24.53;46.89
80504;BME280;69825;51.190;6.808;2023-05-07T01:16:36;101293.13;;;24.70;47.12
80504;BME280;69825;51.190;6.808;2023-05-07T01:19:02;101285.72;;;24.71;46.89
80504;BME280;69825;51.190;6.808;2023-05-07T01:21:32;101283.63;;;24.68;47.08
80504;BME280;69825;51.190;6.808;2023-05-07T01:23:58;101280.56;;;24.69;46.83
80504;BME280;69825;51.190;6.808;2023-05-07T01:26:23;101286.03;;;24.69;47.26
80504;BME280;69825;51.190;6.808;2023-05-07T01:28:49;101274.13;;;24.65;47.09
80504;BME280;69825;51.190;6.808;2023-05-07T01:31:15;101272.97;;;24.66;46.86
80504;BME280;69825;51.190;6.808;2023-05-07T01:33:43;101277.34;;;24.67;47.17
80504;BME280;69825;51.190;6.808;2023-05-07T01:36:11;101278.16;;;24.68;46.91
80504;BME280;69825;51.190;6.808;2023-05-07T01:38:38;101264.59;;;24.63;46.91
80504;BME280;69825;51.190;6.808;2023-05-07T01:41:04;101266.41;;;24.67;46.92
80504;BME280;69825;51.190;6.808;2023-05-07T01:43:30;101264.00;;;24.66;47.13
80504;BME280;69825;51.190;6.808;2023-05-07T01:45:57;101264.78;;;24.66;47.17
80504;BME280;69825;51.190;6.808;2023-05-07T01:48:24;101264.28;;;24.64;46.94
80504;BME280;69825;51.190;6.808;2023-05-07T01:50:50;101268.66;;;24.65;46.89
80504;BME280;69825;51.190;6.808;2023-05-07T01:53:16;101269.84;;;24.59;47.09
80504;BME280;69825;51.190;6.808;2023-05-07T01:55:41;101268.94;;;24.64;46.87
80504;BME280;69825;51.190;6.808;2023-05-07T01:58:07;101265.22;;;24.60;46.41
80504;BME280;69825;51.190;6.808;2023-05-07T02:02:57;101270.34;;;24.61;46.90
80504;BME280;69825;51.190;6.808;2023-05-07T02:05:23;101268.44;;;24.62;47.22
80504;BME280;69825;51.190;6.808;2023-05-07T02:07:49;101265.81;;;24.57;47.10
80504;BME280;69825;51.190;6.808;2023-05-07T02:10:14;101269.56;;;24.61;47.32
80504;BME280;69825;51.190;6.808;2023-05-07T02:12:40;101258.25;;;24.54;46.92
80504;BME280;69825;51.190;6.808;2023-05-07T02:15:05;101271.47;;;24.60;47.30
80504;BME280;69825;51.190;6.808;2023-05-07T02:17:31;101264.72;;;24.58;46.86
80504;BME280;69825;51.190;6.808;2023-05-07T02:22:25;101272.91;;;24.58;47.21
80504;BME280;69825;51.190;6.808;2023-05-07T02:24:51;101245.91;;;24.42;46.93
80504;BME280;69825;51.190;6.808;2023-05-07T02:29:41;101266.63;;;24.57;47.06
80504;BME280;69825;51.190;6.808;2023-05-07T02:32:07;101262.56;;;24.55;46.30
80504;BME280;69825;51.190;6.808;2023-05-07T02:34:32;101259.66;;;24.51;46.90
80504;BME280;69825;51.190;6.808;2023-05-07T02:36:58;101253.66;;;24.49;46.93
80504;BME280;69825;51.190;6.808;2023-05-07T02:39:23;101261.25;;;24.52;47.21
80504;BME280;69825;51.190;6.808;2023-05-07T02:41:48;101266.44;;;24.54;47.33
80504;BME280;69825;51.190;6.808;2023-05-07T02:44:14;101252.06;;;24.48;47.24
80504;BME280;69825;51.190;6.808;2023-05-07T02:46:39;101263.72;;;24.54;47.26
80504;BME280;69825;51.190;6.808;2023-05-07T02:49:04;101254.81;;;24.48;47.06
80504;BME280;69825;51.190;6.808;2023-05-07T02:51:30;101263.19;;;24.52;47.22
80504;BME280;69825;51.190;6.808;2023-05-07T02:53:55;101258.03;;;24.50;46.95
80504;BME280;69825;51.190;6.808;2023-05-07T02:56:21;101272.50;;;24.51;47.26
80504;BME280;69825;51.190;6.808;2023-05-07T02:58:46;101276.03;;;24.51;46.52
80504;BME280;69825;51.190;6.808;2023-05-07T03:01:12;101280.19;;;24.49;47.21
80504;BME280;69825;51.190;6.808;2023-05-07T03:03:39;101272.09;;;24.44;47.19
80504;BME280;69825;51.190;6.808;2023-05-07T03:06:05;101272.59;;;24.46;47.14
80504;BME280;69825;51.190;6.808;2023-05-07T03:08:31;101270.06;;;24.49;47.09
80504;BME280;69825;51.190;6.808;2023-05-07T03:10:57;101264.41;;;24.46;47.33
80504;BME280;69825;51.190;6.808;2023-05-07T03:13:22;101273.09;;;24.48;46.84
80504;BME280;69825;51.190;6.808;2023-05-07T03:15:48;101266.81;;;24.47;46.84
80504;BME280;69825;51.190;6.808;2023-05-07T03:18:13;101270.38;;;24.48;47.45
80504;BME280;69825;51.190;6.808;2023-05-07T03:20:39;101258.44;;;24.44;46.95
80504;BME280;69825;51.190;6.808;2023-05-07T03:23:04;101261.38;;;24.47;46.91
80504;BME280;69825;51.190;6.808;2023-05-07T03:25:30;101262.50;;;24.46;47.16
80504;BME280;69825;51.190;6.808;2023-05-07T03:27:56;101266.81;;;24.47;46.83
80504;BME280;69825;51.190;6.808;2023-05-07T03:30:21;101264.69;;;24.44;47.38
80504;BME280;69825;51.190;6.808;2023-05-07T03:32:46;101263.59;;;24.45;46.85
80504;BME280;69825;51.190;6.808;2023-05-07T03:35:12;101267.13;;;24.46;46.88
80504;BME280;69825;51.190;6.808;2023-05-07T03:37:38;101257.31;;;24.45;46.99
80504;BME280;69825;51.190;6.808;2023-05-07T03:40:04;101262.78;;;24.45;47.22
80504;BME280;69825;51.190;6.808;2023-05-07T03:42:30;101254.19;;;24.37;47.01
80504;BME280;69825;51.190;6.808;2023-05-07T03:44:55;101260.38;;;24.43;46.88
80504;BME280;69825;51.190;6.808;2023-05-07T03:47:21;101258.44;;;24.44;47.13
80504;BME280;69825;51.190;6.808;2023-05-07T03:49:46;101254.69;;;24.39;46.90
80504;BME280;69825;51.190;6.808;2023-05-07T03:52:11;101258.22;;;24.40;47.07
80504;BME280;69825;51.190;6.808;2023-05-07T03:54:37;101266.94;;;24.42;46.77
80504;BME280;69825;51.190;6.808;2023-05-07T03:57:02;101262.88;;;24.39;46.87
80504;BME280;69825;51.190;6.808;2023-05-07T03:59:27;101260.78;;;24.36;46.83
80504;BME280;69825;51.190;6.808;2023-05-07T04:01:53;101271.56;;;24.41;46.81
80504;BME280;69825;51.190;6.808;2023-05-07T04:04:18;101258.66;;;24.33;47.16
80504;BME280;69825;51.190;6.808;2023-05-07T04:06:44;101266.22;;;24.36;46.84
80504;BME280;69825;51.190;6.808;2023-05-07T04:09:09;101274.28;;;24.41;46.97
80504;BME280;69825;51.190;6.808;2023-05-07T04:11:35;101278.97;;;24.41;46.82
80504;BME280;69825;51.190;6.808;2023-05-07T04:14:01;101275.75;;;24.39;47.07
80504;BME280;69825;51.190;6.808;2023-05-07T04:16:26;101272.38;;;24.42;46.85
80504;BME280;69825;51.190;6.808;2023-05-07T04:18:51;101263.28;;;24.33;46.67
80504;BME280;69825;51.190;6.808;2023-05-07T04:21:18;101279.97;;;24.45;46.96
80504;BME280;69825;51.190;6.808;2023-05-07T04:23:44;101283.81;;;24.44;47.00
80504;BME280;69825;51.190;6.808;2023-05-07T04:26:09;101292.81;;;24.45;46.85
80504;BME280;69825;51.190;6.808;2023-05-07T04:28:35;101281.38;;;24.42;46.33
80504;BME280;69825;51.190;6.808;2023-05-07T04:31:00;101273.50;;;24.41;46.97
80504;BME280;69825;51.190;6.808;2023-05-07T04:33:25;101286.75;;;24.48;47.05
80504;BME280;69825;51.190;6.808;2023-05-07T04:35:51;101279.38;;;24.48;47.01
80504;BME280;69825;51.190;6.808;2023-05-07T04:38:16;101271.78;;;24.45;46.86
80504;BME280;69825;51.190;6.808;2023-05-07T04:40:43;101284.53;;;24.50;46.99
80504;BME280;69825;51.190;6.808;2023-05-07T04:43:08;101271.47;;;24.47;46.76
80504;BME280;69825;51.190;6.808;2023-05-07T04:45:34;101272.50;;;24.51;46.80
80504;BME280;69825;51.190;6.808;2023-05-07T04:48:00;101265.41;;;24.50;46.80
80504;BME280;69825;51.190;6.808;2023-05-07T04:50:25;101267.03;;;24.51;46.81
80504;BME280;69825;51.190;6.808;2023-05-07T04:52:51;101279.88;;;24.50;46.72
80504;BME280;69825;51.190;6.808;2023-05-07T04:55:17;101281.50;;;24.51;47.21
80504;BME280;69825;51.190;6.808;2023-05-07T04:57:42;101270.06;;;24.49;46.60
80504;BME280;69825;51.190;6.808;2023-05-07T05:00:08;101267.13;;;24.46;46.63
80504;BME280;69825;51.190;6.808;2023-05-07T05:02:34;101267.63;;;24.48;47.01
80504;BME280;69825;51.190;6.808;2023-05-07T05:05:00;101273.31;;;24.51;46.75
80504;BME280;69825;51.190;6.808;2023-05-07T05:07:27;101276.03;;;24.51;46.73
80504;BME280;69825;51.190;6.808;2023-05-07T05:09:52;101272.78;;;24.49;46.66
80504;BME280;69825;51.190;6.808;2023-05-07T05:12:18;101272.50;;;24.51;47.02
80504;BME280;69825;51.190;6.808;2023-05-07T05:14:43;101280.97;;;24.49;46.67
80504;BME280;69825;51.190;6.808;2023-05-07T05:17:08;101267.13;;;24.46;46.90
80504;BME280;69825;51.190;6.808;2023-05-07T05:19:34;101283.44;;;24.51;46.80
80504;BME280;69825;51.190;6.808;2023-05-07T05:21:59;101284.25;;;24.51;46.96
80504;BME280;69825;51.190;6.808;2023-05-07T05:24:26;101287.75;;;24.52;47.16
80504;BME280;69825;51.190;6.808;2023-05-07T05:26:53;101287.75;;;24.52;46.77
80504;BME280;69825;51.190;6.808;2023-05-07T05:29:18;101290.47;;;24.52;46.64
80504;BME280;69825;51.190;6.808;2023-05-07T05:31:44;101285.03;;;24.52;46.77
80504;BME280;69825;51.190;6.808;2023-05-07T05:34:09;101276.44;;;24.45;46.58
80504;BME280;69825;51.190;6.808;2023-05-07T05:36:34;101301.13;;;24.53;46.76
80504;BME280;69825;51.190;6.808;2023-05-07T05:39:00;101297.69;;;24.48;47.09
80504;BME280;69825;51.190;6.808;2023-05-07T05:41:25;101292.72;;;24.50;46.58
80504;BME280;69825;51.190;6.808;2023-05-07T05:43:51;101303.84;;;24.53;46.97
80504;BME280;69825;51.190;6.808;2023-05-07T05:46:16;101298.41;;;24.53;46.60
80504;BME280;69825;51.190;6.808;2023-05-07T05:48:41;101298.09;;;24.55;46.91
80504;BME280;69825;51.190;6.808;2023-05-07T05:51:07;101305.47;;;24.54;46.46
80504;BME280;69825;51.190;6.808;2023-05-07T05:53:32;101311.72;;;24.55;46.69
80504;BME280;69825;51.190;6.808;2023-05-07T05:55:57;101307.69;;;24.52;46.92
80504;BME280;69825;51.190;6.808;2023-05-07T05:58:23;101310.22;;;24.49;46.45
80504;BME280;69825;51.190;6.808;2023-05-07T06:00:48;101311.56;;;24.51;46.63
80504;BME280;69825;51.190;6.808;2023-05-07T06:03:16;101314.78;;;24.53;46.29
80504;BME280;69825;51.190;6.808;2023-05-07T06:05:41;101314.47;;;24.55;46.69
80504;BME280;69825;51.190;6.808;2023-05-07T06:08:07;101302.03;;;24.49;46.46
80504;BME280;69825;51.190;6.808;2023-05-07T06:10:32;101307.69;;;24.52;46.55
80504;BME280;69825;51.190;6.808;2023-05-07T06:12:57;101310.72;;;24.51;46.42
80504;BME280;69825;51.190;6.808;2023-05-07T06:15:23;101319.13;;;24.54;46.69
80504;BME280;69825;51.190;6.808;2023-05-07T06:17:48;101310.91;;;24.54;46.85
80504;BME280;69825;51.190;6.808;2023-05-07T06:20:14;101315.06;;;24.52;46.54
80504;BME280;69825;51.190;6.808;2023-05-07T06:22:39;101299.31;;;24.49;46.84
80504;BME280;69825;51.190;6.808;2023-05-07T06:25:05;101311.72;;;24.55;46.63
80504;BME280;69825;51.190;6.808;2023-05-07T06:27:30;101308.00;;;24.51;46.63
80504;BME280;69825;51.190;6.808;2023-05-07T06:29:56;101320.44;;;24.57;46.79
80504;BME280;69825;51.190;6.808;2023-05-07T06:32:21;101312.88;;;24.54;46.84
80504;BME280;69825;51.190;6.808;2023-05-07T06:34:47;101319.63;;;24.56;46.94
80504;BME280;69825;51.190;6.808;2023-05-07T06:37:12;101324.56;;;24.54;46.86
80504;BME280;69825;51.190;6.808;2023-05-07T06:39:37;101313.47;;;24.51;46.64
80504;BME280;69825;51.190;6.808;2023-05-07T06:42:03;101328.03;;;24.60;47.06
80504;BME280;69825;51.190;6.808;2023-05-07T06:44:29;101326.94;;;24.61;46.80
80504;BME280;69825;51.190;6.808;2023-05-07T06:46:55;101329.44;;;24.57;47.14
80504;BME280;69825;51.190;6.808;2023-05-07T06:49:20;101325.59;;;24.58;47.04
80504;BME280;69825;51.190;6.808;2023-05-07T06:51:46;101310.41;;;24.52;47.01
80504;BME280;69825;51.190;6.808;2023-05-07T06:54:11;101313.66;;;24.54;46.85
80504;BME280;69825;51.190;6.808;2023-05-07T06:56:37;101310.31;;;24.57;47.15
80504;BME280;69825;51.190;6.808;2023-05-07T06:59:03;101317.59;;;24.62;46.90
80504;BME280;69825;51.190;6.808;2023-05-07T07:01:28;101322.25;;;24.61;47.05
80504;BME280;69825;51.190;6.808;2023-05-07T07:03:54;101328.53;;;24.62;47.12
80504;BME280;69825;51.190;6.808;2023-05-07T07:06:19;101329.34;;;24.62;46.89
80504;BME280;69825;51.190;6.808;2023-05-07T07:08:45;101324.56;;;24.54;46.69
80504;BME280;69825;51.190;6.808;2023-05-07T07:11:11;101320.25;;;24.53;46.92
80504;BME280;69825;51.190;6.808;2023-05-07T07:13:36;101324.56;;;24.54;46.55
80504;BME280;69825;51.190;6.808;2023-05-07T07:16:02;101333.38;;;24.65;46.62
80504;BME280;69825;51.190;6.808;2023-05-07T07:18:28;101334.19;;;24.65;46.52
80504;BME280;69825;51.190;6.808;2023-05-07T07:20:53;101337.22;;;24.64;46.76
80504;BME280;69825;51.190;6.808;2023-05-07T07:23:18;101341.28;;;24.66;46.43
80504;BME280;69825;51.190;6.808;2023-05-07T07:25:44;101336.94;;;24.65;46.41
80504;BME280;69825;51.190;6.808;2023-05-07T07:28:09;101336.63;;;24.67;46.29
80504;BME280;69825;51.190;6.808;2023-05-07T07:30:36;101336.13;;;24.65;46.44
80504;BME280;69825;51.190;6.808;2023-05-07T07:33:02;101345.94;;;24.66;46.37
80504;BME280;69825;51.190;6.808;2023-05-07T07:35:28;101336.72;;;24.62;46.30
80504;BME280;69825;51.190;6.808;2023-05-07T07:37:54;101339.94;;;24.64;46.23
80504;BME280;69825;51.190;6.808;2023-05-07T07:40:19;101342.09;;;24.67;46.36
80504;BME280;69825;51.190;6.808;2023-05-07T07:42:45;101333.38;;;24.65;46.34
80504;BME280;69825;51.190;6.808;2023-05-07T07:45:10;101329.94;;;24.59;46.12
80504;BME280;69825;51.190;6.808;2023-05-07T07:47:36;101342.09;;;24.67;46.38
80504;BME280;69825;51.190;6.808;2023-05-07T07:50:01;101347.53;;;24.67;46.43
80504;BME280;69825;51.190;6.808;2023-05-07T07:52:26;101344.09;;;24.61;46.44
80504;BME280;69825;51.190;6.808;2023-05-07T07:54:52;101346.44;;;24.68;46.32
80504;BME280;69825;51.190;6.808;2023-05-07T07:57:17;101341.78;;;24.68;45.84
80504;BME280;69825;51.190;6.808;2023-05-07T07:59:42;101354.31;;;24.69;46.22
80504;BME280;69825;51.190;6.808;2023-05-07T08:02:08;101356.06;;;24.65;45.89
80504;BME280;69825;51.190;6.808;2023-05-07T08:04:34;101351.19;;;24.62;46.10
80504;BME280;69825;51.190;6.808;2023-05-07T08:06:59;101358.47;;;24.67;46.13
80504;BME280;69825;51.190;6.808;2023-05-07T08:09:24;101345.13;;;24.65;45.63
80504;BME280;69825;51.190;6.808;2023-05-07T08:11:50;101355.44;;;24.68;45.86
80504;BME280;69825;51.190;6.808;2023-05-07T08:14:15;101358.47;;;24.67;45.79
80504;BME280;69825;51.190;6.808;2023-05-07T08:16:41;101349.78;;;24.65;45.66
80504;BME280;69825;51.190;6.808;2023-05-07T08:19:06;101350.59;;;24.65;45.75
80504;BME280;69825;51.190;6.808;2023-05-07T08:21:31;101351.41;;;24.66;45.76
80504;BME280;69825;51.190;6.808;2023-05-07T08:23:57;101350.09;;;24.63;45.84
80504;BME280;69825;51.190;6.808;2023-05-07T08:26:22;101339.34;;;24.67;46.14
80504;BME280;69825;51.190;6.808;2023-05-07T08:28:48;101344.00;;;24.66;45.91
80504;BME280;69825;51.190;6.808;2023-05-07T08:31:13;101355.97;;;24.70;45.78
80504;BME280;69825;51.190;6.808;2023-05-07T08:33:38;101347.22;;;24.68;45.96
80504;BME280;69825;51.190;6.808;2023-05-07T08:36:04;101346.63;;;24.71;45.58
80504;BME280;69825;51.190;6.808;2023-05-07T08:38:29;101345.81;;;24.71;45.61
80504;BME280;69825;51.190;6.808;2023-05-07T08:40:55;101343.63;;;24.73;45.60
80504;BME280;69825;51.190;6.808;2023-05-07T08:43:21;101349.88;;;24.73;45.54
80504;BME280;69825;51.190;6.808;2023-05-07T08:45:49;101354.22;;;24.74;45.50
80504;BME280;69825;51.190;6.808;2023-05-07T08:48:17;101355.84;;;24.75;45.71
80504;BME280;69825;51.190;6.808;2023-05-07T08:50:42;101349.69;;;24.70;45.34
80504;BME280;69825;51.190;6.808;2023-05-07T08:53:08;101353.91;;;24.76;45.78
80504;BME280;69825;51.190;6.808;2023-05-07T08:55:33;101349.09;;;24.73;45.29
80504;BME280;69825;51.190;6.808;2023-05-07T08:57:59;101355.56;;;24.77;45.33
80504;BME280;69825;51.190;6.808;2023-05-07T09:00:25;101352.84;;;24.77;45.76
80504;BME280;69825;51.190;6.808;2023-05-07T09:02:50;101346.34;;;24.73;45.94
80504;BME280;69825;51.190;6.808;2023-05-07T09:05:15;101360.72;;;24.78;46.43
80504;BME280;69825;51.190;6.808;2023-05-07T09:07:42;101347.75;;;24.70;48.43
80504;BME280;69825;51.190;6.808;2023-05-07T09:10:07;101356.56;;;24.81;48.65
80504;BME280;69825;51.190;6.808;2023-05-07T09:12:33;101353.97;;;24.89;47.30
80504;BME280;69825;51.190;6.808;2023-05-07T09:15:00;101348.41;;;24.94;47.18
80504;BME280;69825;51.190;6.808;2023-05-07T09:17:26;101357.06;;;25.10;47.13
80504;BME280;69825;51.190;6.808;2023-05-07T09:19:52;101355.63;;;25.26;46.26
80504;BME280;69825;51.190;6.808;2023-05-07T09:22:18;101347.00;;;25.46;45.80
80504;BME280;69825;51.190;6.808;2023-05-07T09:24:50;101357.47;;;25.66;45.21
80504;BME280;69825;51.190;6.808;2023-05-07T09:27:16;101364.56;;;25.90;44.72
80504;BME280;69825;51.190;6.808;2023-05-07T09:29:43;101340.16;;;26.02;44.23
80504;BME280;69825;51.190;6.808;2023-05-07T09:32:08;101360.19;;;26.33;43.93
80504;BME280;69825;51.190;6.808;2023-05-07T09:34:35;101344.66;;;26.51;43.82
80504;BME280;69825;51.190;6.808;2023-05-07T09:37:04;101349.72;;;26.74;43.36
80504;BME280;69825;51.190;6.808;2023-05-07T09:39:47;101351.31;;;26.97;42.82
80504;BME280;69825;51.190;6.808;2023-05-07T09:42:12;101354.56;;;27.17;42.32
80504;BME280;69825;51.190;6.808;2023-05-07T09:44:40;101342.97;;;27.28;41.94
80504;BME280;69825;51.190;6.808;2023-05-07T09:47:06;101351.41;;;27.49;41.74
80504;BME280;69825;51.190;6.808;2023-05-07T09:49:36;101349.78;;;27.65;40.93
80504;BME280;69825;51.190;6.808;2023-05-07T09:52:03;101337.84;;;27.78;40.11
80504;BME280;69825;51.190;6.808;2023-05-07T09:54:31;101343.78;;;27.97;39.91
80504;BME280;69825;51.190;6.808;2023-05-07T09:56:58;101349.56;;;28.13;39.44
80504;BME280;69825;51.190;6.808;2023-05-07T09:59:24;101335.31;;;28.28;39.23
80504;BME280;69825;51.190;6.808;2023-05-07T10:01:52;101331.88;;;28.40;38.70
80504;BME280;69825;51.190;6.808;2023-05-07T10:04:19;101333.94;;;28.51;38.82
80504;BME280;69825;51.190;6.808;2023-05-07T10:06:46;101323.41;;;28.62;38.98
80504;BME280;69825;51.190;6.808;2023-05-07T10:09:12;101331.09;;;28.77;38.36
80504;BME280;69825;51.190;6.808;2023-05-07T10:11:38;101332.00;;;28.89;38.02
80504;BME280;69825;51.190;6.808;2023-05-07T10:14:04;101332.41;;;29.00;36.65
80504;BME280;69825;51.190;6.808;2023-05-07T10:16:36;101309.78;;;28.94;36.43
80504;BME280;69825;51.190;6.808;2023-05-07T10:19:05;101327.19;;;29.07;36.68
80504;BME280;69825;51.190;6.808;2023-05-07T10:21:35;101317.47;;;29.10;36.38
80504;BME280;69825;51.190;6.808;2023-05-07T10:24:13;101327.63;;;29.18;36.95
80504;BME280;69825;51.190;6.808;2023-05-07T10:26:47;101328.72;;;29.25;36.44
80504;BME280;69825;51.190;6.808;2023-05-07T10:35:02;101333.91;;;29.47;35.47
80504;BME280;69825;51.190;6.808;2023-05-07T10:37:29;101320.75;;;29.32;36.10
80504;BME280;69825;51.190;6.808;2023-05-07T10:39:54;101328.72;;;29.25;35.61
80504;BME280;69825;51.190;6.808;2023-05-07T10:42:19;101322.69;;;29.03;35.84
80504;BME280;69825;51.190;6.808;2023-05-07T10:44:45;101327.44;;;28.93;36.39
80504;BME280;69825;51.190;6.808;2023-05-07T10:47:12;101320.59;;;28.79;37.16
80504;BME280;69825;51.190;6.808;2023-05-07T10:52:13;101332.88;;;28.73;37.55
80504;BME280;69825;51.190;6.808;2023-05-07T10:54:39;101319.31;;;28.76;37.24
80504;BME280;69825;51.190;6.808;2023-05-07T10:57:33;101325.25;;;28.87;37.43
80504;BME280;69825;51.190;6.808;2023-05-07T11:05:23;101315.44;;;29.27;36.98
80504;BME280;69825;51.190;6.808;2023-05-07T11:08:00;101319.88;;;29.40;37.16
80504;BME280;69825;51.190;6.808;2023-05-07T11:10:56;101312.59;;;29.56;36.58
80504;BME280;69825;51.190;6.808;2023-05-07T11:13:41;101308.63;;;29.66;36.43
80504;BME280;69825;51.190;6.808;2023-05-07T11:18:50;101299.00;;;29.72;36.49
80504;BME280;69825;51.190;6.808;2023-05-07T11:21:39;101306.41;;;29.80;36.80
80504;BME280;69825;51.190;6.808;2023-05-07T11:24:06;101312.38;;;29.82;36.53
80504;BME280;69825;51.190;6.808;2023-05-07T11:26:46;101310.06;;;29.84;36.67
80504;BME280;69825;51.190;6.808;2023-05-07T11:31:40;101298.06;;;29.89;37.01
80504;BME280;69825;51.190;6.808;2023-05-07T11:34:06;101300.38;;;29.99;36.52
80504;BME280;69825;51.190;6.808;2023-05-07T11:36:32;101303.38;;;30.06;36.85
80504;BME280;69825;51.190;6.808;2023-05-07T11:38:58;101305.91;;;30.11;36.46
80504;BME280;69825;51.190;6.808;2023-05-07T11:41:33;101305.34;;;30.17;36.59
80504;BME280;69825;51.190;6.808;2023-05-07T11:43:59;101306.41;;;30.25;36.25
80504;BME280;69825;51.190;6.808;2023-05-07T11:46:26;101292.72;;;30.29;36.17
80504;BME280;69825;51.190;6.808;2023-05-07T11:48:51;101300.59;;;30.39;36.22
80504;BME280;69825;51.190;6.808;2023-05-07T11:51:21;101297.38;;;30.49;36.52
80504;BME280;69825;51.190;6.808;2023-05-07T11:53:47;101304.84;;;30.60;35.60
80504;BME280;69825;51.190;6.808;2023-05-07T11:56:15;101300.94;;;30.73;35.46
80504;BME280;69825;51.190;6.808;2023-05-07T11:58:42;101298.50;;;30.84;35.33
80504;BME280;69825;51.190;6.808;2023-05-07T12:01:09;101300.38;;;30.92;35.53
80504;BME280;69825;51.190;6.808;2023-05-07T12:03:36;101292.75;;;31.01;34.78
80504;BME280;69825;51.190;6.808;2023-05-07T12:06:08;101302.63;;;31.14;35.09
80504;BME280;69825;51.190;6.808;2023-05-07T12:08:36;101303.06;;;31.16;35.22
80504;BME280;69825;51.190;6.808;2023-05-07T12:11:02;101285.84;;;31.07;35.15
80504;BME280;69825;51.190;6.808;2023-05-07T12:13:27;101291.69;;;31.06;34.77
80504;BME280;69825;51.190;6.808;2023-05-07T12:15:55;101305.63;;;31.09;34.98
80504;BME280;69825;51.190;6.808;2023-05-07T12:18:21;101312.84;;;31.14;35.05
80504;BME280;69825;51.190;6.808;2023-05-07T12:20:48;101311.72;;;31.15;35.09
80504;BME280;69825;51.190;6.808;2023-05-07T12:23:13;101316.88;;;31.16;34.83
80504;BME280;69825;51.190;6.808;2023-05-07T12:25:40;101321.94;;;31.14;34.33
80504;BME280;69825;51.190;6.808;2023-05-07T12:28:16;101307.47;;;31.05;34.78
80504;BME280;69825;51.190;6.808;2023-05-07T12:30:46;101312.44;;;31.00;34.90
80504;BME280;69825;51.190;6.808;2023-05-07T12:33:16;101310.94;;;30.90;35.08
80504;BME280;69825;51.190;6.808;2023-05-07T12:35:42;101309.44;;;30.80;35.32
80504;BME280;69825;51.190;6.808;2023-05-07T12:38:09;101309.44;;;30.68;35.10
80504;BME280;69825;51.190;6.808;2023-05-07T12:40:49;101314.50;;;30.54;35.22
80504;BME280;69825;51.190;6.808;2023-05-07T12:43:18;101316.75;;;30.40;35.80
80504;BME280;69825;51.190;6.808;2023-05-07T12:45:44;101312.25;;;30.23;35.69
80504;BME280;69825;51.190;6.808;2023-05-07T12:48:10;101319.81;;;30.14;35.65
80504;BME280;69825;51.190;6.808;2023-05-07T12:50:36;101320.13;;;30.01;35.87
80504;BME280;69825;51.190;6.808;2023-05-07T12:53:04;101321.69;;;29.90;36.34
80504;BME280;69825;51.190;6.808;2023-05-07T12:55:44;101318.59;;;29.79;36.00
80504;BME280;69825;51.190;6.808;2023-05-07T12:58:30;101319.97;;;29.65;36.57
80504;BME280;69825;51.190;6.808;2023-05-07T13:00:57;101323.63;;;29.56;36.30
80504;BME280;69825;51.190;6.808;2023-05-07T13:03:30;101322.41;;;29.45;37.07
80504;BME280;69825;51.190;6.808;2023-05-07T13:06:02;101315.69;;;29.34;36.76
80504;BME280;69825;51.190;6.808;2023-05-07T13:08:38;101320.78;;;29.24;37.52
80504;BME280;69825;51.190;6.808;2023-05-07T13:11:11;101319.22;;;29.14;36.92
80504;BME280;69825;51.190;6.808;2023-05-07T13:13:38;101314.31;;;28.99;37.66